createdAt,value
2022-07-26T00:00:05.430Z,1.30
2022-07-26T00:03:07.223Z,1.45
2022-07-26T00:06:09.603Z,1.52
2022-07-26T00:09:11.557Z,1.30
2022-07-26T00:12:13.283Z,1.27
2022-07-26T00:15:14.899Z,1.20
2022-07-26T00:18:17.721Z,1.50
2022-07-26T00:21:19.355Z,1.20
2022-07-26T00:24:20.963Z,1.30
2022-07-26T00:27:22.788Z,1.15
2022-07-26T00:30:27.841Z,1.30
2022-07-26T00:33:29.559Z,1.00
2022-07-26T00:36:31.170Z,1.40
2022-07-26T00:39:33.017Z,1.00
2022-07-26T00:42:34.871Z,0.98
2022-07-26T00:45:36.603Z,1.00
2022-07-26T00:48:38.211Z,1.00
2022-07-26T00:51:39.966Z,1.00
2022-07-26T00:54:45.809Z,1.13
2022-07-26T00:57:47.742Z,1.00
2022-07-26T01:00:49.710Z,1.20
2022-07-26T01:03:53.234Z,1.10
2022-07-26T01:06:55.210Z,1.20
2022-07-26T01:09:57.205Z,1.00
2022-07-26T01:12:59.003Z,1.15
2022-07-26T01:16:00.648Z,1.00
2022-07-26T01:19:02.315Z,0.98
2022-07-26T01:22:03.976Z,1.23
2022-07-26T01:25:09.512Z,1.30
2022-07-26T01:28:11.167Z,1.20
2022-07-26T01:31:21.890Z,0.98
2022-07-26T01:34:23.654Z,1.20
2022-07-26T01:37:25.283Z,1.10
2022-07-26T01:40:26.994Z,1.27
2022-07-26T01:43:28.673Z,1.13
2022-07-26T01:46:30.538Z,1.20
2022-07-26T01:49:32.148Z,1.05
2022-07-26T01:52:35.573Z,1.30
2022-07-26T01:55:37.433Z,1.45
2022-07-26T01:58:40.811Z,1.10
2022-07-26T02:01:42.498Z,1.23
2022-07-26T02:04:59.082Z,1.35
2022-07-26T02:08:00.730Z,1.13
2022-07-26T02:11:04.046Z,1.38
2022-07-26T02:14:06.138Z,1.23
2022-07-26T02:17:08.197Z,1.02
2022-07-26T02:20:10.147Z,1.20
2022-07-26T02:23:12.210Z,1.13
2022-07-26T02:26:13.809Z,1.25
2022-07-26T02:29:15.688Z,1.13
2022-07-26T02:32:17.358Z,1.30
2022-07-26T02:35:19.185Z,1.30
2022-07-26T02:38:20.827Z,1.10
2022-07-26T02:41:23.910Z,1.27
2022-07-26T02:44:27.118Z,1.35
2022-07-26T02:47:28.910Z,1.30
2022-07-26T02:50:30.636Z,1.30
2022-07-26T02:53:32.982Z,1.20
2022-07-26T02:56:34.526Z,1.50
2022-07-26T02:59:37.050Z,1.42
2022-07-26T03:02:39.242Z,1.27
2022-07-26T03:05:40.979Z,1.40
2022-07-26T03:08:42.561Z,1.50
2022-07-26T03:11:44.241Z,1.25
2022-07-26T03:14:45.832Z,1.45
2022-07-26T03:17:47.469Z,1.60
2022-07-26T03:20:49.984Z,1.40
2022-07-26T03:23:51.608Z,1.58
2022-07-26T03:26:53.215Z,1.50
2022-07-26T03:29:54.861Z,1.48
2022-07-26T03:32:56.520Z,1.42
2022-07-26T03:35:58.104Z,1.45
2022-07-26T03:39:00.489Z,1.42
2022-07-26T03:42:02.126Z,1.40
2022-07-26T03:45:04.084Z,1.70
2022-07-26T03:48:06.084Z,1.60
2022-07-26T03:51:07.887Z,1.70
2022-07-26T03:54:09.996Z,1.65
2022-07-26T03:57:11.940Z,1.70
2022-07-26T04:00:13.952Z,1.50
2022-07-26T04:03:15.511Z,1.40
2022-07-26T04:06:17.120Z,1.45
2022-07-26T04:09:19.332Z,1.50
2022-07-26T04:12:21.025Z,1.48
2022-07-26T04:15:22.871Z,1.77
2022-07-26T04:18:24.743Z,1.90
2022-07-26T04:21:26.560Z,2.00
2022-07-26T04:24:28.256Z,2.00
2022-07-26T04:27:30.210Z,1.95
2022-07-26T04:30:31.919Z,1.83
2022-07-26T04:33:33.816Z,2.00
2022-07-26T04:36:35.420Z,1.83
2022-07-26T04:39:37.049Z,2.30
2022-07-26T04:42:38.805Z,1.80
2022-07-26T04:45:40.528Z,1.90
2022-07-26T04:48:42.309Z,2.00
2022-07-26T04:51:59.704Z,1.80
2022-07-26T04:55:01.362Z,1.80
2022-07-26T04:58:03.862Z,2.22
2022-07-26T05:01:10.410Z,1.98
2022-07-26T05:04:13.111Z,1.90
2022-07-26T05:07:14.705Z,1.70
2022-07-26T05:10:18.113Z,1.60
2022-07-26T05:13:23.078Z,1.80
2022-07-26T05:16:31.489Z,2.30
2022-07-26T05:19:34.458Z,1.95
2022-07-26T05:22:36.920Z,2.10
2022-07-26T05:25:39.130Z,2.20
2022-07-26T05:28:40.944Z,2.47
2022-07-26T05:31:42.904Z,2.00
2022-07-26T05:34:44.513Z,2.40
2022-07-26T05:37:46.346Z,2.05
2022-07-26T05:40:50.668Z,2.08
2022-07-26T05:43:52.747Z,2.70
2022-07-26T05:46:58.178Z,2.30
2022-07-26T05:50:00.479Z,2.40
2022-07-26T05:53:02.221Z,2.47
2022-07-26T05:56:21.798Z,2.13
2022-07-26T05:59:23.410Z,2.30
2022-07-26T06:02:25.208Z,2.22
2022-07-26T06:05:26.899Z,2.20
2022-07-26T06:08:28.758Z,2.08
2022-07-26T06:11:30.356Z,2.20
2022-07-26T06:14:31.986Z,2.15
2022-07-26T06:17:34.909Z,2.05
2022-07-26T06:20:41.646Z,1.80
2022-07-26T06:23:43.223Z,1.77
2022-07-26T06:26:56.791Z,2.20
2022-07-26T06:29:59.623Z,1.92
2022-07-26T06:33:01.355Z,2.33
2022-07-26T06:36:06.169Z,2.20
2022-07-26T06:39:10.800Z,2.28
2022-07-26T06:42:12.996Z,2.10
2022-07-26T06:45:17.164Z,2.28
2022-07-26T06:48:18.822Z,2.50
2022-07-26T06:51:22.472Z,2.20
2022-07-26T06:54:24.468Z,2.15
2022-07-26T06:57:26.537Z,2.13
2022-07-26T07:00:29.142Z,2.30
2022-07-26T07:03:30.932Z,2.15
2022-07-26T07:06:32.804Z,2.50
2022-07-26T07:09:36.012Z,2.55
2022-07-26T07:12:38.045Z,2.47
2022-07-26T07:15:42.030Z,2.45
2022-07-26T07:18:44.105Z,2.38
2022-07-26T07:21:47.193Z,2.58
2022-07-26T07:24:48.861Z,2.20
2022-07-26T07:27:50.730Z,2.15
2022-07-26T07:30:52.519Z,2.25
2022-07-26T07:33:54.193Z,2.22
2022-07-26T07:36:57.157Z,2.00
2022-07-26T07:40:00.937Z,2.38
2022-07-26T07:43:02.670Z,2.50
2022-07-26T07:46:05.004Z,2.22
2022-07-26T07:49:07.419Z,2.20
2022-07-26T07:52:09.452Z,2.15
2022-07-26T07:55:36.697Z,2.40
2022-07-26T07:58:33.197Z,2.20
2022-07-26T08:01:39.655Z,2.22
2022-07-26T08:04:42.523Z,2.25
2022-07-26T08:07:45.367Z,2.03
2022-07-26T08:10:51.548Z,1.83
2022-07-26T08:13:54.199Z,2.10
2022-07-26T08:17:01.062Z,2.20
2022-07-26T08:20:06.205Z,2.00
2022-07-26T08:23:11.164Z,2.05
2022-07-26T08:26:12.914Z,1.90
2022-07-26T08:29:14.819Z,2.22
2022-07-26T08:32:16.787Z,2.10
2022-07-26T08:35:19.731Z,1.95
2022-07-26T08:38:22.901Z,1.98
2022-07-26T08:41:24.831Z,2.53
2022-07-26T08:44:26.714Z,1.85
2022-07-26T08:47:37.589Z,2.03
2022-07-26T08:50:45.413Z,1.70
2022-07-26T08:53:48.204Z,1.90
2022-07-26T08:56:53.254Z,1.33
2022-07-26T09:00:19.293Z,1.05
2022-07-26T09:03:31.633Z,1.00
2022-07-26T09:06:33.417Z,1.00
2022-07-26T09:09:56.466Z,1.02
2022-07-26T09:13:01.365Z,0.98
2022-07-26T09:16:14.414Z,0.90
2022-07-26T09:19:22.184Z,1.30
2022-07-26T09:22:23.913Z,1.30
2022-07-26T09:25:26.721Z,1.30
2022-07-26T09:28:31.334Z,1.10
2022-07-26T09:31:35.676Z,1.15
2022-07-26T09:34:44.511Z,1.30
2022-07-26T09:37:54.068Z,1.30
2022-07-26T09:40:55.846Z,1.30
2022-07-26T09:44:01.946Z,1.02
2022-07-26T09:47:03.704Z,1.23
2022-07-26T09:50:13.012Z,1.20
2022-07-26T09:53:14.896Z,1.85
2022-07-26T09:56:19.976Z,1.65
2022-07-26T09:59:23.536Z,1.45
2022-07-26T10:02:25.795Z,1.73
2022-07-26T10:05:28.514Z,1.60
2022-07-26T10:08:31.493Z,1.50
2022-07-26T10:12:07.287Z,1.30
2022-07-26T10:15:46.881Z,1.27
2022-07-26T10:18:50.259Z,1.70
2022-07-26T10:22:35.086Z,1.50
2022-07-26T10:25:49.318Z,1.80
2022-07-26T10:28:53.460Z,1.70
2022-07-26T10:36:38.623Z,1.80
2022-07-26T10:39:41.088Z,1.80
2022-07-26T10:42:55.652Z,1.70
2022-07-26T10:46:20.651Z,1.50
2022-07-26T10:49:34.493Z,1.63
2022-07-26T10:52:36.411Z,1.50
2022-07-26T10:56:16.152Z,1.40
2022-07-26T10:59:55.720Z,1.00
2022-07-26T11:03:00.159Z,1.45
2022-07-26T11:06:17.390Z,1.27
2022-07-26T11:12:23.757Z,1.00
2022-07-26T11:15:25.467Z,0.70
2022-07-26T11:18:30.763Z,0.57
2022-07-26T11:21:32.432Z,0.70
2022-07-26T11:24:40.853Z,0.90
2022-07-26T11:28:02.080Z,0.80
2022-07-26T11:31:10.189Z,0.70
2022-07-26T11:34:22.154Z,0.80
2022-07-26T11:37:23.798Z,0.75
2022-07-26T11:40:47.617Z,0.70
2022-07-26T11:43:50.567Z,0.60
2022-07-26T11:46:52.866Z,0.70
2022-07-26T11:50:14.267Z,0.80
2022-07-26T11:53:22.910Z,0.90
2022-07-26T11:56:24.754Z,0.85
2022-07-26T11:59:32.696Z,0.60
2022-07-26T12:02:34.378Z,0.75
2022-07-26T12:05:36.667Z,0.80
2022-07-26T12:08:43.938Z,0.60
2022-07-26T12:11:47.942Z,0.77
2022-07-26T12:15:04.810Z,0.52
2022-07-26T12:18:07.289Z,0.70
2022-07-26T12:21:09.689Z,0.52
2022-07-26T12:24:13.594Z,0.90
2022-07-26T12:27:15.397Z,0.70
2022-07-26T12:30:17.414Z,0.70
2022-07-26T12:33:19.017Z,0.90
2022-07-26T12:36:27.945Z,0.80
2022-07-26T12:39:30.994Z,0.90
2022-07-26T12:42:38.916Z,0.90
2022-07-26T12:45:40.776Z,0.82
2022-07-26T12:48:45.536Z,0.90
2022-07-26T12:51:47.261Z,1.00
2022-07-26T12:54:51.777Z,1.00
2022-07-26T12:57:55.723Z,1.10
2022-07-26T13:00:57.652Z,0.90
2022-07-26T13:04:00.107Z,0.80
2022-07-26T13:07:01.920Z,1.35
2022-07-26T13:10:31.797Z,0.93
2022-07-26T13:13:27.276Z,0.90
2022-07-26T13:16:28.942Z,0.80
2022-07-26T13:19:31.143Z,0.80
2022-07-26T13:22:32.779Z,0.82
2022-07-26T13:25:38.327Z,0.80
2022-07-26T13:28:41.674Z,0.93
2022-07-26T13:31:43.423Z,0.80
2022-07-26T13:34:45.044Z,0.68
2022-07-26T13:37:46.652Z,0.70
2022-07-26T13:40:50.367Z,0.68
2022-07-26T13:43:56.588Z,0.70
2022-07-26T13:46:58.204Z,0.80
2022-07-26T13:49:59.921Z,0.90
2022-07-26T13:53:01.730Z,0.60
2022-07-26T13:56:04.243Z,0.63
2022-07-26T13:59:05.968Z,0.70
2022-07-26T14:02:07.726Z,0.93
2022-07-26T14:05:09.689Z,0.90
2022-07-26T14:08:11.345Z,0.98
2022-07-26T14:11:12.959Z,0.93
2022-07-26T14:14:15.003Z,1.17
2022-07-26T14:17:17.044Z,0.98
2022-07-26T14:20:18.816Z,0.95
2022-07-26T14:23:20.556Z,0.80
2022-07-26T14:26:22.577Z,0.93
2022-07-26T14:29:24.263Z,0.98
2022-07-26T14:32:25.961Z,1.00
2022-07-26T14:35:28.085Z,0.80
2022-07-26T14:38:30.268Z,0.95
2022-07-26T14:41:32.116Z,1.10
2022-07-26T14:44:34.666Z,1.10
2022-07-26T14:47:46.078Z,0.90
2022-07-26T14:51:08.808Z,1.00
2022-07-26T14:54:09.798Z,0.95
2022-07-26T14:57:11.626Z,0.93
2022-07-26T15:00:17.315Z,0.82
2022-07-26T15:03:19.011Z,0.90
2022-07-26T15:06:20.705Z,0.75
2022-07-26T15:09:22.326Z,0.80
2022-07-26T15:12:24.032Z,0.98
2022-07-26T15:15:26.067Z,0.93
2022-07-26T15:18:27.703Z,0.80
2022-07-26T15:21:29.306Z,0.80
2022-07-26T15:24:32.489Z,0.77
2022-07-26T15:27:35.864Z,0.90
2022-07-26T15:30:37.587Z,0.95
2022-07-26T15:33:39.190Z,0.90
2022-07-26T15:36:41.418Z,1.00
2022-07-26T15:39:43.071Z,1.30
2022-07-26T15:42:45.703Z,1.00
2022-07-26T15:45:48.150Z,1.00
2022-07-26T15:48:51.302Z,1.20
2022-07-26T15:51:52.945Z,1.20
2022-07-26T15:54:54.585Z,0.80
2022-07-26T15:57:56.193Z,1.00
2022-07-26T16:00:58.106Z,1.10
2022-07-26T16:04:01.010Z,1.15
2022-07-26T16:07:05.532Z,1.10
2022-07-26T16:10:08.248Z,1.00
2022-07-26T16:13:09.912Z,1.20
2022-07-26T16:16:12.390Z,1.40
2022-07-26T16:19:14.480Z,1.30
2022-07-26T16:22:17.658Z,1.42
2022-07-26T16:25:19.284Z,1.27
2022-07-26T16:28:20.986Z,1.20
2022-07-26T16:31:22.711Z,1.15
2022-07-26T16:34:24.534Z,1.40
2022-07-26T16:37:26.193Z,1.30
2022-07-26T16:40:27.981Z,1.40
2022-07-26T16:43:29.735Z,1.20
2022-07-26T16:46:31.629Z,1.13
2022-07-26T16:49:35.389Z,0.90
2022-07-26T16:52:39.564Z,1.00
2022-07-26T16:55:41.234Z,1.10
2022-07-26T16:58:42.869Z,1.23
2022-07-26T17:01:48.320Z,1.10
2022-07-26T17:04:50.355Z,1.00
2022-07-26T17:07:51.995Z,1.00
2022-07-26T17:10:53.633Z,1.20
2022-07-26T17:13:55.298Z,1.27
2022-07-26T17:16:59.599Z,1.58
2022-07-26T17:20:01.205Z,1.20
2022-07-26T17:23:02.854Z,1.40
2022-07-26T17:26:04.752Z,1.13
2022-07-26T17:29:06.355Z,1.20
2022-07-26T17:32:08.729Z,1.40
2022-07-26T17:35:10.579Z,1.30
2022-07-26T17:38:12.262Z,1.50
2022-07-26T17:41:18.288Z,1.40
2022-07-26T17:44:21.470Z,1.63
2022-07-26T17:47:27.941Z,1.60
2022-07-26T17:50:36.976Z,1.30
2022-07-26T17:53:42.835Z,1.50
2022-07-26T17:56:44.433Z,1.25
2022-07-26T17:59:46.096Z,1.23
2022-07-26T18:02:48.717Z,1.55
2022-07-26T18:05:51.135Z,1.38
2022-07-26T18:08:52.933Z,1.30
2022-07-26T18:11:54.631Z,1.50
2022-07-26T18:14:56.691Z,1.50
2022-07-26T18:17:59.072Z,1.40
2022-07-26T18:21:00.712Z,1.30
2022-07-26T18:24:16.333Z,1.40
2022-07-26T18:27:19.632Z,1.77
2022-07-26T18:30:21.501Z,1.48
2022-07-26T18:33:23.245Z,1.25
2022-07-26T18:36:25.031Z,1.38
2022-07-26T18:39:30.491Z,1.50
2022-07-26T18:42:36.201Z,1.38
2022-07-26T18:45:37.880Z,1.52
2022-07-26T18:48:41.703Z,1.10
2022-07-26T18:51:44.863Z,1.30
2022-07-26T18:54:50.199Z,1.60
2022-07-26T18:57:53.617Z,1.50
2022-07-26T19:00:55.516Z,1.30
2022-07-26T19:03:57.326Z,1.60
2022-07-26T19:06:59.008Z,1.40
2022-07-26T19:10:00.630Z,1.40
2022-07-26T19:13:02.292Z,1.67
2022-07-26T19:16:04.121Z,1.30
2022-07-26T19:19:05.782Z,1.30
2022-07-26T19:22:07.479Z,1.35
2022-07-26T19:25:16.355Z,1.30
2022-07-26T19:28:18.064Z,1.30
2022-07-26T19:31:19.827Z,1.25
2022-07-26T19:34:21.470Z,1.13
2022-07-26T19:37:23.185Z,1.10
2022-07-26T19:40:25.041Z,1.30
2022-07-26T19:43:27.307Z,1.55
2022-07-26T19:46:31.243Z,1.25
2022-07-26T19:49:32.884Z,1.30
2022-07-26T19:52:35.064Z,1.35
2022-07-26T19:55:38.380Z,1.20
2022-07-26T19:58:40.055Z,1.30
2022-07-26T20:01:41.749Z,1.15
2022-07-26T20:04:46.205Z,1.20
2022-07-26T20:07:49.949Z,1.17
2022-07-26T20:10:52.300Z,1.83
2022-07-26T20:13:55.360Z,1.13
2022-07-26T20:16:58.148Z,1.27
2022-07-26T20:19:59.865Z,1.10
2022-07-26T20:23:03.563Z,1.23
2022-07-26T20:26:05.283Z,1.00
2022-07-26T20:29:07.483Z,1.15
2022-07-26T20:32:09.278Z,1.45
2022-07-26T20:35:10.950Z,1.30
2022-07-26T20:38:12.848Z,1.02
2022-07-26T20:41:14.496Z,1.13
2022-07-26T20:44:16.166Z,1.00
2022-07-26T20:47:20.514Z,1.13
2022-07-26T20:50:22.921Z,1.23
2022-07-26T20:53:25.767Z,1.38
2022-07-26T20:56:27.991Z,1.10
2022-07-26T20:59:29.707Z,1.13
2022-07-26T21:02:31.488Z,1.17
2022-07-26T21:05:33.162Z,1.17
2022-07-26T21:08:35.459Z,1.33
2022-07-26T21:11:37.704Z,1.17
2022-07-26T21:14:39.383Z,1.20
2022-07-26T21:17:41.409Z,1.10
2022-07-26T21:20:43.066Z,1.75
2022-07-26T21:23:44.766Z,1.25
2022-07-26T21:26:46.341Z,1.20
2022-07-26T21:29:47.920Z,1.20
2022-07-26T21:32:49.521Z,1.30
2022-07-26T21:35:51.322Z,1.40
2022-07-26T21:38:52.951Z,1.10
2022-07-26T21:41:54.556Z,1.20
2022-07-26T21:44:56.144Z,1.30
2022-07-26T21:47:57.787Z,1.13
2022-07-26T21:50:59.489Z,1.27
2022-07-26T21:54:01.798Z,1.13
2022-07-26T21:57:03.706Z,1.20
2022-07-26T22:00:06.332Z,1.10
2022-07-26T22:03:08.129Z,1.20
2022-07-26T22:06:10.914Z,1.10
2022-07-26T22:09:12.874Z,1.27
2022-07-26T22:12:14.840Z,1.20
2022-07-26T22:15:16.507Z,1.20
2022-07-26T22:18:20.289Z,1.15
2022-07-26T22:21:21.986Z,1.30
2022-07-26T22:24:23.650Z,1.17
2022-07-26T22:27:25.604Z,1.10
2022-07-26T22:30:28.499Z,1.50
2022-07-26T22:33:30.101Z,1.48
2022-07-26T22:36:31.765Z,1.42
2022-07-26T22:39:33.437Z,1.10
2022-07-26T22:42:35.142Z,1.25
2022-07-26T22:45:37.450Z,1.20
2022-07-26T22:48:42.163Z,1.02
2022-07-26T22:51:46.234Z,1.10
2022-07-26T22:54:47.970Z,1.15
2022-07-26T22:57:50.357Z,1.23
2022-07-26T23:00:52.085Z,1.20
2022-07-26T23:03:53.900Z,1.15
2022-07-26T23:06:55.861Z,1.40
2022-07-26T23:10:01.533Z,1.20
2022-07-26T23:13:03.178Z,1.35
2022-07-26T23:16:05.139Z,1.20
2022-07-26T23:19:07.096Z,1.30
2022-07-26T23:22:08.689Z,1.30
2022-07-26T23:25:10.398Z,1.30
2022-07-26T23:28:11.949Z,1.10
2022-07-26T23:31:34.026Z,1.20
2022-07-26T23:34:35.689Z,1.35
2022-07-26T23:37:37.329Z,1.25
2022-07-26T23:40:38.924Z,1.13
2022-07-26T23:43:40.475Z,1.40
2022-07-26T23:46:42.308Z,1.40
2022-07-26T23:49:43.945Z,1.02
2022-07-26T23:52:45.598Z,1.30
2022-07-26T23:55:49.135Z,1.10
2022-07-26T23:58:50.956Z,1.10
